Time;durP1;ratioP1;P1;durP2;ratioP2;P2;SDS_P1;SDS_P2;PMS_P1;PMS_P2;Temp;Humidity;BMP_temperature;BMP_pressure;BME280_temperature;BME280_humidity;BME280_pressure;Samples;Min_cycle;Max_cycle;Signal;HPM_P1;HPM_P2
2023/10/03 00:00:51;;;;;;;0.00;0.00;;;;;;;;;;4963556;28;20055;-84
2023/10/03 00:03:17;;;;;;;0.00;0.00;;;;;;;;;;4946625;28;20023;-83
2023/10/03 00:05:45;;;;;;;0.00;0.00;;;;;;;;;;4975896;28;20042;-85
2023/10/03 00:08:10;;;;;;;0.00;0.00;;;;;;;;;;4976273;28;20019;-82
2023/10/03 00:10:38;;;;;;;0.00;0.00;;;;;;;;;;4950775;28;20118;-84
2023/10/03 00:13:07;;;;;;;0.00;0.00;;;;;;;;;;4963230;28;20117;-84
2023/10/03 00:15:33;;;;;;;0.00;0.00;;;;;;;;;;4933174;28;20031;-83
2023/10/03 00:17:59;;;;;;;0.00;0.00;;;;;;;;;;4937135;28;20050;-83
2023/10/03 00:20:24;;;;;;;0.00;0.00;;;;;;;;;;4961319;28;20121;-84
2023/10/03 00:22:50;;;;;;;0.00;0.00;;;;;;;;;;4959846;28;20066;-83
2023/10/03 00:25:19;;;;;;;0.00;0.00;;;;;;;;;;4959518;28;20424;-84
2023/10/03 00:27:46;;;;;;;0.00;0.00;;;;;;;;;;4926821;28;20066;-83
2023/10/03 00:30:19;;;;;;;0.00;0.00;;;;;;;;;;4957595;28;20454;-85
2023/10/03 00:32:45;;;;;;;0.00;0.00;;;;;;;;;;4959066;28;20050;-84
2023/10/03 00:35:11;;;;;;;0.00;0.00;;;;;;;;;;4924312;28;20122;-84
2023/10/03 00:37:37;;;;;;;0.00;0.00;;;;;;;;;;4941644;28;20178;-84
2023/10/03 00:42:48;;;;;;;0.00;0.00;;;;;;;;;;4959765;28;20062;-84
2023/10/03 00:45:24;;;;;;;0.00;0.00;;;;;;;;;;4935498;28;20031;-84
2023/10/03 00:47:52;;;;;;;0.00;0.00;;;;;;;;;;4938338;28;20024;-84
2023/10/03 00:50:19;;;;;;;0.00;0.00;;;;;;;;;;4927422;28;20027;-84
2023/10/03 00:52:56;;;;;;;0.00;0.00;;;;;;;;;;4959425;28;20097;-84
2023/10/03 00:55:25;;;;;;;0.00;0.00;;;;;;;;;;4959772;28;20031;-85
2023/10/03 00:57:50;;;;;;;0.00;0.00;;;;;;;;;;4911166;28;20062;-84
2023/10/03 01:00:16;;;;;;;0.00;0.00;;;;;;;;;;4925870;28;20111;-83
2023/10/03 01:02:52;;;;;;;0.00;0.00;;;;;;;;;;4942412;28;20027;-84
2023/10/03 01:05:18;;;;;;;0.00;0.00;;;;;;;;;;4910071;28;20059;-85
2023/10/03 01:07:49;;;;;;;0.00;0.00;;;;;;;;;;4958176;28;20023;-85
2023/10/03 01:10:17;;;;;;;0.00;0.00;;;;;;;;;;4926012;28;20129;-85
2023/10/03 01:12:44;;;;;;;0.00;0.00;;;;;;;;;;4952237;28;20039;-85
2023/10/03 01:15:13;;;;;;;0.00;0.00;;;;;;;;;;4963233;28;20099;-85
2023/10/03 01:17:38;;;;;;;0.00;0.00;;;;;;;;;;4978981;28;20050;-85
2023/10/03 01:20:16;;;;;;;0.00;0.00;;;;;;;;;;4973039;28;20103;-85
2023/10/03 01:22:44;;;;;;;0.00;0.00;;;;;;;;;;4931862;28;20035;-84
2023/10/03 01:25:12;;;;;;;0.00;0.00;;;;;;;;;;4943061;28;20023;-84
2023/10/03 01:27:40;;;;;;;0.00;0.00;;;;;;;;;;4969518;28;20090;-84
2023/10/03 01:30:08;;;;;;;0.00;0.00;;;;;;;;;;4925628;28;20066;-85
2023/10/03 01:32:35;;;;;;;0.00;0.00;;;;;;;;;;4940888;28;20050;-84
2023/10/03 01:35:06;;;;;;;0.00;0.00;;;;;;;;;;4924886;28;20039;-85
2023/10/03 01:37:32;;;;;;;0.00;0.00;;;;;;;;;;4956260;28;20029;-85
2023/10/03 01:40:00;;;;;;;0.00;0.00;;;;;;;;;;4942924;28;20114;-84
2023/10/03 01:42:25;;;;;;;0.00;0.00;;;;;;;;;;4928632;28;20057;-85
2023/10/03 01:44:51;;;;;;;0.00;0.00;;;;;;;;;;4972632;28;20027;-84
2023/10/03 01:47:16;;;;;;;0.00;0.00;;;;;;;;;;4938146;28;20488;-84
2023/10/03 01:49:42;;;;;;;0.00;0.00;;;;;;;;;;4947387;29;20042;-85
2023/10/03 01:52:07;;;;;;;0.00;0.00;;;;;;;;;;4944665;28;20031;-85
2023/10/03 01:54:34;;;;;;;0.00;0.00;;;;;;;;;;4943535;28;20031;-85
2023/10/03 01:57:00;;;;;;;0.00;0.00;;;;;;;;;;4958078;28;20023;-86
2023/10/03 01:59:26;;;;;;;0.00;0.00;;;;;;;;;;4940290;28;20023;-85
2023/10/03 02:01:52;;;;;;;0.00;0.00;;;;;;;;;;4957238;28;20027;-85
2023/10/03 02:04:17;;;;;;;0.00;0.00;;;;;;;;;;4940082;28;20472;-85
2023/10/03 02:06:44;;;;;;;0.00;0.00;;;;;;;;;;4957560;28;20031;-84
2023/10/03 02:09:10;;;;;;;0.00;0.00;;;;;;;;;;4940570;28;20456;-84
2023/10/03 02:11:37;;;;;;;0.00;0.00;;;;;;;;;;4939812;28;20100;-85
2023/10/03 02:14:07;;;;;;;0.00;0.00;;;;;;;;;;4940097;28;20023;-85
2023/10/03 02:16:36;;;;;;;0.00;0.00;;;;;;;;;;4957209;28;20126;-85
2023/10/03 02:19:01;;;;;;;0.00;0.00;;;;;;;;;;4924694;28;20122;-85
2023/10/03 02:21:27;;;;;;;0.00;0.00;;;;;;;;;;4940072;28;20125;-85
2023/10/03 02:23:52;;;;;;;0.00;0.00;;;;;;;;;;4939870;28;20031;-85
2023/10/03 02:26:18;;;;;;;0.00;0.00;;;;;;;;;;4957223;28;20412;-84
2023/10/03 02:28:43;;;;;;;0.00;0.00;;;;;;;;;;4940278;28;20035;-85
2023/10/03 02:31:10;;;;;;;0.00;0.00;;;;;;;;;;4924308;28;20110;-84
2023/10/03 02:33:37;;;;;;;0.00;0.00;;;;;;;;;;4940301;28;20039;-86
2023/10/03 02:36:07;;;;;;;0.00;0.00;;;;;;;;;;4957406;28;20098;-85
2023/10/03 02:38:37;;;;;;;0.00;0.00;;;;;;;;;;4956787;28;20110;-85
2023/10/03 02:41:03;;;;;;;0.00;0.00;;;;;;;;;;4922097;28;20031;-84
2023/10/03 02:43:34;;;;;;;0.00;0.00;;;;;;;;;;4939475;28;20046;-85
2023/10/03 02:45:59;;;;;;;0.00;0.00;;;;;;;;;;4956699;28;20099;-85
2023/10/03 02:48:25;;;;;;;0.00;0.00;;;;;;;;;;4959048;28;20410;-85
2023/10/03 02:50:51;;;;;;;0.00;0.00;;;;;;;;;;4939604;28;20039;-85
2023/10/03 02:53:20;;;;;;;0.00;0.00;;;;;;;;;;4956647;28;20472;-85
2023/10/03 02:55:52;;;;;;;0.00;0.00;;;;;;;;;;4939054;28;20042;-85
2023/10/03 02:58:19;;;;;;;0.00;0.00;;;;;;;;;;4908387;28;20122;-85
2023/10/03 03:00:46;;;;;;;0.00;0.00;;;;;;;;;;4907509;28;20143;-84
2023/10/03 03:03:12;;;;;;;0.00;0.00;;;;;;;;;;4923160;28;20035;-85
2023/10/03 03:05:38;;;;;;;0.00;0.00;;;;;;;;;;4939600;28;20116;-84
2023/10/03 03:08:29;;;;;;;0.00;0.00;;;;;;;;;;4907440;28;20354;-85
2023/10/03 03:10:57;;;;;;;0.00;0.00;;;;;;;;;;4941739;28;20043;-85
2023/10/03 03:13:33;;;;;;;0.00;0.00;;;;;;;;;;4939823;28;20028;-84
2023/10/03 03:16:04;;;;;;;0.00;0.00;;;;;;;;;;4955972;28;20114;-84
2023/10/03 03:18:46;;;;;;;0.00;0.00;;;;;;;;;;4909470;28;20044;-84
2023/10/03 03:21:14;;;;;;;0.00;0.00;;;;;;;;;;4914561;28;20121;-84
2023/10/03 03:23:42;;;;;;;0.00;0.00;;;;;;;;;;4959903;28;20063;-84
2023/10/03 03:26:17;;;;;;;0.00;0.00;;;;;;;;;;4927863;28;20050;-85
2023/10/03 03:28:46;;;;;;;0.00;0.00;;;;;;;;;;4928295;28;20194;-85
2023/10/03 03:31:31;;;;;;;0.00;0.00;;;;;;;;;;4911586;28;20031;-84
2023/10/03 03:33:57;;;;;;;0.00;0.00;;;;;;;;;;4959941;28;20039;-85
2023/10/03 03:36:23;;;;;;;0.00;0.00;;;;;;;;;;4959798;28;20050;-85
2023/10/03 03:38:51;;;;;;;0.00;0.00;;;;;;;;;;4959830;28;20147;-84
2023/10/03 03:41:17;;;;;;;0.00;0.00;;;;;;;;;;4926630;28;20031;-85
2023/10/03 03:43:45;;;;;;;0.00;0.00;;;;;;;;;;4942987;28;20529;-85
2023/10/03 03:46:13;;;;;;;0.00;0.00;;;;;;;;;;4959647;28;20031;-84
2023/10/03 03:48:38;;;;;;;0.00;0.00;;;;;;;;;;4942626;28;20122;-85
2023/10/03 03:51:06;;;;;;;0.00;0.00;;;;;;;;;;4942447;28;20035;-85
2023/10/03 03:53:32;;;;;;;0.00;0.00;;;;;;;;;;4927317;28;20067;-84
2023/10/03 03:55:59;;;;;;;0.00;0.00;;;;;;;;;;4960347;28;20113;-84
2023/10/03 03:58:26;;;;;;;0.00;0.00;;;;;;;;;;4942357;28;20029;-84
2023/10/03 04:00:52;;;;;;;0.00;0.00;;;;;;;;;;4942685;28;20035;-85
2023/10/03 04:03:18;;;;;;;0.00;0.00;;;;;;;;;;4942584;28;20389;-85
2023/10/03 04:05:46;;;;;;;0.00;0.00;;;;;;;;;;4943014;28;20031;-83
2023/10/03 04:08:22;;;;;;;0.00;0.00;;;;;;;;;;4942505;29;20035;-84
2023/10/03 04:11:23;;;;;;;0.00;0.00;;;;;;;;;;4929105;29;20131;-83
2023/10/03 04:13:55;;;;;;;0.00;0.00;;;;;;;;;;4938567;28;20047;-82
2023/10/03 04:16:27;;;;;;;0.00;0.00;;;;;;;;;;4951130;29;20067;-84
2023/10/03 04:18:53;;;;;;;0.00;0.00;;;;;;;;;;4952501;28;20050;-85
2023/10/03 04:21:26;;;;;;;0.00;0.00;;;;;;;;;;4961223;28;20047;-85
2023/10/03 04:23:53;;;;;;;0.00;0.00;;;;;;;;;;4927564;28;20496;-84
2023/10/03 04:26:19;;;;;;;0.00;0.00;;;;;;;;;;4926525;28;20031;-85
2023/10/03 04:28:45;;;;;;;0.00;0.00;;;;;;;;;;4910524;28;20446;-85
2023/10/03 04:31:10;;;;;;;0.00;0.00;;;;;;;;;;4926623;28;20067;-84
2023/10/03 04:33:36;;;;;;;0.00;0.00;;;;;;;;;;4926417;28;20446;-85
2023/10/03 04:36:05;;;;;;;0.00;0.00;;;;;;;;;;4926249;28;20144;-83
2023/10/03 04:38:33;;;;;;;0.00;0.00;;;;;;;;;;4943634;28;20503;-84
2023/10/03 04:41:02;;;;;;;0.05;0.00;;;;;;;;;;4959361;28;20039;-83
2023/10/03 04:43:30;;;;;;;0.00;0.00;;;;;;;;;;4927365;28;20031;-83
2023/10/03 04:45:56;;;;;;;0.00;0.00;;;;;;;;;;4926988;29;20035;-83
2023/10/03 04:48:22;;;;;;;0.00;0.00;;;;;;;;;;4927885;29;20035;-86
2023/10/03 04:50:48;;;;;;;0.00;0.00;;;;;;;;;;4898778;29;20032;-84
2023/10/03 04:56:53;;;;;;;0.00;0.00;;;;;;;;;;4920167;29;20055;-84
2023/10/03 04:59:22;;;;;;;0.00;0.00;;;;;;;;;;4912181;29;20044;-85
2023/10/03 05:01:51;;;;;;;0.00;0.00;;;;;;;;;;4905480;28;20129;-83
2023/10/03 05:04:17;;;;;;;0.00;0.00;;;;;;;;;;4917328;29;20037;-83
2023/10/03 05:49:00;;;;;;;0.00;0.00;;;;;;;;;;5062823;23;20058;-87
2023/10/03 05:55:18;;;;;;;0.00;0.00;;;;;;;;;;4872669;29;20250;-83
2023/10/03 05:57:55;;;;;;;0.00;0.00;;;;;;;;;;4865898;29;20044;-82
2023/10/03 06:00:56;;;;;;;0.00;0.00;;;;;;;;;;4892530;29;20147;-83
2023/10/03 06:51:56;;;;;;;0.00;0.00;;;;;;;;;;5731027;23;20058;-83
2023/10/03 06:54:25;;;;;;;0.00;0.00;;;;;;;;;;4963939;28;20487;-87
2023/10/03 06:56:51;;;;;;;0.00;0.00;;;;;;;;;;4990834;28;20042;-81
2023/10/03 06:59:17;;;;;;;0.00;0.00;;;;;;;;;;4981266;28;20301;-82
2023/10/03 07:01:42;;;;;;;0.00;0.00;;;;;;;;;;4972705;28;20073;-83
2023/10/03 07:04:08;;;;;;;0.00;0.00;;;;;;;;;;4977348;28;20070;-83
2023/10/03 07:06:34;;;;;;;0.00;0.00;;;;;;;;;;4975483;28;20034;-83
2023/10/03 07:09:01;;;;;;;0.00;0.00;;;;;;;;;;4970904;28;20034;-83
2023/10/03 07:11:30;;;;;;;0.00;0.00;;;;;;;;;;4975577;28;20041;-84
2023/10/03 07:13:55;;;;;;;0.00;0.00;;;;;;;;;;4986003;28;20123;-83
2023/10/03 07:16:21;;;;;;;0.00;0.00;;;;;;;;;;4983219;28;20437;-81
2023/10/03 07:18:50;;;;;;;0.00;0.00;;;;;;;;;;4957581;28;20035;-81
2023/10/03 07:21:37;;;;;;;0.00;0.00;;;;;;;;;;4959499;28;20042;-83
2023/10/03 07:26:35;;;;;;;0.00;0.00;;;;;;;;;;4984466;23;20063;-87
2023/10/03 07:29:04;;;;;;;0.00;0.00;;;;;;;;;;5010049;28;20085;-81
2023/10/03 07:31:50;;;;;;;0.00;0.00;;;;;;;;;;4986400;28;20030;-84
2023/10/03 07:34:25;;;;;;;0.00;0.00;;;;;;;;;;4958865;28;20106;-86
2023/10/03 07:36:52;;;;;;;0.00;0.00;;;;;;;;;;4972487;28;20100;-83
2023/10/03 07:39:21;;;;;;;0.00;0.00;;;;;;;;;;5012282;28;20096;-85
2023/10/03 07:45:37;;;;;;;0.00;0.00;;;;;;;;;;4931710;29;20054;-86
2023/10/03 08:04:12;;;;;;;0.00;0.00;;;;;;;;;;5106866;23;20065;-84
2023/10/03 08:06:38;;;;;;;0.00;0.00;;;;;;;;;;4977240;28;20126;-83
2023/10/03 08:09:04;;;;;;;0.00;0.00;;;;;;;;;;4979116;28;20034;-83
2023/10/03 08:11:30;;;;;;;0.00;0.00;;;;;;;;;;4978339;28;20026;-84
2023/10/03 08:14:00;;;;;;;0.00;0.00;;;;;;;;;;4995487;28;20034;-83
2023/10/03 08:16:34;;;;;;;0.00;0.00;;;;;;;;;;4949217;28;20030;-80
2023/10/03 08:19:02;;;;;;;0.00;0.00;;;;;;;;;;4997090;28;20038;-83
2023/10/03 08:21:28;;;;;;;0.00;0.00;;;;;;;;;;4964211;28;20069;-83
2023/10/03 08:23:57;;;;;;;0.00;0.00;;;;;;;;;;4947872;28;20030;-81
2023/10/03 08:26:25;;;;;;;0.00;0.00;;;;;;;;;;4979730;28;20030;-81
2023/10/03 08:28:59;;;;;;;0.00;0.00;;;;;;;;;;5000447;28;20118;-81
2023/10/03 08:31:27;;;;;;;0.00;0.00;;;;;;;;;;4986049;28;20026;-83
2023/10/03 08:33:55;;;;;;;0.00;0.00;;;;;;;;;;4985723;28;20034;-83
2023/10/03 08:36:27;;;;;;;0.00;0.00;;;;;;;;;;5006137;28;20089;-84
2023/10/03 08:39:16;;;;;;;0.00;0.00;;;;;;;;;;4980433;28;20033;-82
2023/10/03 08:41:48;;;;;;;0.00;0.00;;;;;;;;;;5011591;28;20065;-84
2023/10/03 08:55:09;;;;;;;0.00;0.00;;;;;;;;;;4931080;29;20047;-84
2023/10/03 08:57:40;;;;;;;0.00;0.00;;;;;;;;;;4975898;28;20039;-81
2023/10/03 09:00:09;;;;;;;0.00;0.00;;;;;;;;;;4979013;28;20137;-83
2023/10/03 09:02:49;;;;;;;0.00;0.00;;;;;;;;;;4981755;28;20043;-82
2023/10/03 09:05:19;;;;;;;;;;;;;;;;;;4970259;28;20144;-83
2023/10/03 09:07:47;;;;;;;0.00;0.00;;;;;;;;;;4969641;28;19901;-81
2023/10/03 09:10:22;;;;;;;0.00;0.00;;;;;;;;;;4990751;28;20039;-81
2023/10/03 09:13:03;;;;;;;0.00;0.00;;;;;;;;;;4972824;28;20039;-83
2023/10/03 09:15:45;;;;;;;0.00;0.00;;;;;;;;;;4968217;28;20109;-80
2023/10/03 09:18:56;;;;;;;0.00;0.00;;;;;;;;;;4938349;29;20091;-82
2023/10/03 09:21:27;;;;;;;0.00;0.00;;;;;;;;;;4941912;29;20043;-82
2023/10/03 09:29:49;;;;;;;0.00;0.00;;;;;;;;;;4993549;28;20126;-83
2023/10/03 09:32:24;;;;;;;0.00;0.00;;;;;;;;;;4980240;28;20109;-82
2023/10/03 09:35:00;;;;;;;0.00;0.00;;;;;;;;;;4979799;28;20041;-79
2023/10/03 10:34:40;;;;;;;0.00;0.00;;;;;;;;;;5413837;23;20960;-86
2023/10/03 10:37:22;;;;;;;0.00;0.00;;;;;;;;;;4918002;29;20482;-87
2023/10/03 10:40:04;;;;;;;0.00;0.00;;;;;;;;;;4938755;28;20065;-86
2023/10/03 10:42:34;;;;;;;0.00;0.00;;;;;;;;;;4956557;28;20503;-86
2023/10/03 10:45:38;;;;;;;0.00;0.00;;;;;;;;;;4945515;28;20408;-84
2023/10/03 10:48:22;;;;;;;0.03;0.00;;;;;;;;;;4895250;29;20044;-85
2023/10/03 10:53:51;;;;;;;0.00;0.00;;;;;;;;;;4915256;29;20067;-82
2023/10/03 10:56:17;;;;;;;0.00;0.00;;;;;;;;;;4866548;29;20104;-80
2023/10/03 11:11:32;;;;;;;0.00;0.00;;;;;;;;;;4997110;23;20054;-83
2023/10/03 11:13:58;;;;;;;0.00;0.00;;;;;;;;;;4998024;28;20495;-83
2023/10/03 11:16:25;;;;;;;0.00;0.00;;;;;;;;;;4990139;28;20077;-82
2023/10/03 11:18:52;;;;;;;0.00;0.00;;;;;;;;;;4974093;28;20444;-82
2023/10/03 11:21:27;;;;;;;0.00;0.00;;;;;;;;;;4975758;28;20062;-82
2023/10/03 11:24:38;;;;;;;0.00;0.00;;;;;;;;;;4963891;28;20030;-83
2023/10/03 11:27:04;;;;;;;0.00;0.00;;;;;;;;;;4954264;28;20129;-82
2023/10/03 11:29:45;;;;;;;0.00;0.00;;;;;;;;;;4996199;28;20056;-83
2023/10/03 11:32:30;;;;;;;0.00;0.00;;;;;;;;;;4973938;28;20564;-82
2023/10/03 11:34:57;;;;;;;0.00;0.00;;;;;;;;;;4991169;28;20036;-83
2023/10/03 11:37:37;;;;;;;0.00;0.00;;;;;;;;;;4972398;28;20041;-83
2023/10/03 11:40:57;;;;;;;;;;;;;;;;;;;;;
2023/10/03 11:43:23;;;;;;;0.00;0.00;;;;;;;;;;4959592;28;20198;-84
2023/10/03 11:45:58;;;;;;;0.00;0.00;;;;;;;;;;4994298;28;20459;-82
2023/10/03 11:48:23;;;;;;;0.00;0.00;;;;;;;;;;4976164;28;20027;-84
2023/10/03 11:50:49;;;;;;;0.00;0.00;;;;;;;;;;4990866;28;20030;-84
2023/10/03 11:53:15;;;;;;;0.00;0.00;;;;;;;;;;4959239;28;20460;-83
2023/10/03 11:55:40;;;;;;;0.00;0.00;;;;;;;;;;4993880;28;20022;-84
2023/10/03 11:58:06;;;;;;;0.00;0.00;;;;;;;;;;4994303;28;20022;-84
2023/10/03 12:00:33;;;;;;;0.00;0.00;;;;;;;;;;4960518;28;20527;-84
2023/10/03 12:02:59;;;;;;;0.00;0.00;;;;;;;;;;4945369;28;20129;-84
2023/10/03 12:05:27;;;;;;;0.00;0.00;;;;;;;;;;4993937;28;20089;-84
2023/10/03 12:07:56;;;;;;;0.00;0.00;;;;;;;;;;4979743;28;20038;-85
2023/10/03 12:10:24;;;;;;;0.00;0.00;;;;;;;;;;4966815;28;20457;-84
2023/10/03 12:12:50;;;;;;;0.00;0.00;;;;;;;;;;4960955;28;20030;-85
2023/10/03 12:15:16;;;;;;;0.00;0.00;;;;;;;;;;4977899;28;20283;-84
2023/10/03 12:17:46;;;;;;;0.00;0.00;;;;;;;;;;4965390;28;20031;-84
2023/10/03 12:20:22;;;;;;;0.00;0.00;;;;;;;;;;4961275;28;20038;-84
2023/10/03 12:29:31;;;;;;;;;;;;;;;;;;4907520;29;20553;-84
2023/10/03 12:31:57;;;;;;;0.00;0.00;;;;;;;;;;4944412;29;19915;-82
2023/10/03 12:34:25;;;;;;;0.00;0.00;;;;;;;;;;4952382;29;20046;-83
2023/10/03 12:36:51;;;;;;;0.00;0.00;;;;;;;;;;4912959;29;20106;-84
2023/10/03 12:39:18;;;;;;;0.00;0.00;;;;;;;;;;4925745;29;20130;-83
2023/10/03 12:41:46;;;;;;;0.00;0.00;;;;;;;;;;4922794;29;20055;-84
2023/10/03 12:44:13;;;;;;;0.00;0.00;;;;;;;;;;4906695;29;20059;-83
2023/10/03 12:46:42;;;;;;;0.00;0.00;;;;;;;;;;4929766;29;20075;-83
2023/10/03 12:49:08;;;;;;;0.00;0.00;;;;;;;;;;4942243;29;20044;-83
2023/10/03 12:51:34;;;;;;;0.00;0.00;;;;;;;;;;4907175;29;20059;-82
2023/10/03 12:53:59;;;;;;;0.00;0.00;;;;;;;;;;4934570;29;20043;-83
2023/10/03 12:56:27;;;;;;;0.00;0.00;;;;;;;;;;4969175;28;20586;-83
2023/10/03 12:58:54;;;;;;;0.00;0.00;;;;;;;;;;4977470;28;20029;-83
2023/10/03 13:01:19;;;;;;;0.00;0.00;;;;;;;;;;4994361;28;20134;-82
2023/10/03 13:03:46;;;;;;;0.00;0.00;;;;;;;;;;4960020;28;20144;-82
2023/10/03 13:06:14;;;;;;;0.00;0.00;;;;;;;;;;4977274;28;20038;-82
2023/10/03 13:08:42;;;;;;;0.00;0.00;;;;;;;;;;4976925;28;20038;-82
2023/10/03 13:11:07;;;;;;;0.00;0.00;;;;;;;;;;4976710;28;20039;-82
2023/10/03 13:13:34;;;;;;;0.00;0.00;;;;;;;;;;4977250;28;20042;-81
2023/10/03 13:16:02;;;;;;;0.00;0.00;;;;;;;;;;4976573;28;20035;-82
2023/10/03 13:18:27;;;;;;;0.00;0.00;;;;;;;;;;4981447;28;20441;-81
2023/10/03 13:20:53;;;;;;;0.00;0.00;;;;;;;;;;4988561;28;20116;-82
2023/10/03 13:23:19;;;;;;;0.00;0.00;;;;;;;;;;5009307;28;20034;-82
2023/10/03 13:25:45;;;;;;;0.00;0.00;;;;;;;;;;4968257;28;20034;-82
2023/10/03 13:28:11;;;;;;;0.00;0.00;;;;;;;;;;4992878;28;20027;-82
2023/10/03 13:30:39;;;;;;;0.00;0.00;;;;;;;;;;4977297;28;20066;-83
2023/10/03 13:33:05;;;;;;;0.00;0.00;;;;;;;;;;4977744;28;20353;-82
2023/10/03 13:35:30;;;;;;;0.00;0.00;;;;;;;;;;4977192;28;20046;-83
2023/10/03 13:37:56;;;;;;;0.00;0.00;;;;;;;;;;4976822;28;20045;-82
2023/10/03 13:40:21;;;;;;;0.00;0.00;;;;;;;;;;4991853;28;20031;-82
2023/10/03 13:42:48;;;;;;;0.00;0.00;;;;;;;;;;4959574;28;20031;-82
2023/10/03 13:45:14;;;;;;;0.00;0.00;;;;;;;;;;4975736;28;20121;-82
2023/10/03 13:47:43;;;;;;;0.00;0.00;;;;;;;;;;4959828;28;20125;-83
2023/10/03 13:50:09;;;;;;;0.00;0.00;;;;;;;;;;4974845;28;20104;-82
2023/10/03 13:52:37;;;;;;;0.00;0.00;;;;;;;;;;4975474;28;20057;-83
2023/10/03 13:55:06;;;;;;;0.00;0.00;;;;;;;;;;4943491;28;20031;-82
2023/10/03 13:57:33;;;;;;;0.00;0.00;;;;;;;;;;4971423;28;20372;-82
2023/10/03 14:00:00;;;;;;;0.00;0.00;;;;;;;;;;4976600;28;20121;-81
2023/10/03 14:02:45;;;;;;;0.00;0.00;;;;;;;;;;4960350;28;20038;-82
2023/10/03 14:05:10;;;;;;;0.00;0.00;;;;;;;;;;4977831;28;20107;-83
2023/10/03 14:07:37;;;;;;;0.00;0.00;;;;;;;;;;4965499;23;20066;-81
2023/10/03 14:10:05;;;;;;;0.00;0.00;;;;;;;;;;4958132;28;20049;-80
2023/10/03 14:12:32;;;;;;;0.00;0.00;;;;;;;;;;4942805;28;20030;-81
2023/10/03 14:14:58;;;;;;;0.00;0.00;;;;;;;;;;4941994;28;20094;-80
2023/10/03 14:17:24;;;;;;;0.00;0.00;;;;;;;;;;4942223;28;20030;-82
2023/10/03 14:19:50;;;;;;;0.00;0.00;;;;;;;;;;4942165;28;20464;-82
2023/10/03 14:22:18;;;;;;;0.00;0.00;;;;;;;;;;4973977;28;20058;-81
2023/10/03 14:24:44;;;;;;;0.00;0.00;;;;;;;;;;4973756;28;20034;-81
2023/10/03 14:27:10;;;;;;;0.00;0.00;;;;;;;;;;4974915;28;20081;-80
2023/10/03 14:29:36;;;;;;;0.00;0.00;;;;;;;;;;4974072;28;20015;-81
2023/10/03 14:32:01;;;;;;;0.00;0.00;;;;;;;;;;4975384;28;20384;-81
2023/10/03 14:34:26;;;;;;;0.00;0.00;;;;;;;;;;4975415;28;20034;-81
2023/10/03 14:36:52;;;;;;;0.00;0.00;;;;;;;;;;4974351;28;20033;-82
2023/10/03 14:39:24;;;;;;;0.00;0.00;;;;;;;;;;4975357;28;20026;-82
2023/10/03 14:41:51;;;;;;;0.00;0.00;;;;;;;;;;4975560;28;20027;-81
2023/10/03 14:44:17;;;;;;;0.00;0.00;;;;;;;;;;4975084;28;20026;-81
2023/10/03 14:46:43;;;;;;;0.00;0.00;;;;;;;;;;4975374;28;20027;-81
2023/10/03 14:49:10;;;;;;;0.00;0.00;;;;;;;;;;4990218;28;20070;-80
2023/10/03 14:51:35;;;;;;;0.00;0.00;;;;;;;;;;4958118;28;20023;-81
2023/10/03 14:54:02;;;;;;;0.00;0.00;;;;;;;;;;4975345;28;20038;-80
2023/10/03 14:56:27;;;;;;;0.00;0.00;;;;;;;;;;4973912;28;20035;-81
2023/10/03 14:58:54;;;;;;;0.00;0.00;;;;;;;;;;4990461;28;20051;-81
2023/10/03 15:01:20;;;;;;;0.00;0.00;;;;;;;;;;4974402;28;20524;-81
2023/10/03 15:03:45;;;;;;;0.00;0.00;;;;;;;;;;4990024;28;20037;-81
2023/10/03 15:06:11;;;;;;;0.00;0.00;;;;;;;;;;4957945;28;20523;-81
2023/10/03 15:08:37;;;;;;;0.00;0.00;;;;;;;;;;4970494;28;20050;-79
2023/10/03 15:11:04;;;;;;;0.00;0.00;;;;;;;;;;4954825;28;20027;-78
2023/10/03 15:13:30;;;;;;;0.00;0.00;;;;;;;;;;4985541;28;20035;-78
2023/10/03 15:15:56;;;;;;;0.00;0.00;;;;;;;;;;4970618;28;20464;-80
2023/10/03 15:18:21;;;;;;;0.00;0.00;;;;;;;;;;4955682;28;20441;-80
2023/10/03 15:20:47;;;;;;;0.00;0.00;;;;;;;;;;4970591;28;20085;-80
2023/10/03 15:23:12;;;;;;;0.00;0.00;;;;;;;;;;4970736;28;20438;-80
2023/10/03 15:25:39;;;;;;;0.00;0.00;;;;;;;;;;4955576;29;20046;-79
2023/10/03 15:28:04;;;;;;;0.00;0.00;;;;;;;;;;4980438;28;20084;-79
2023/10/03 15:30:30;;;;;;;0.00;0.00;;;;;;;;;;4938116;29;20062;-79
2023/10/03 15:32:59;;;;;;;0.00;0.00;;;;;;;;;;4955287;28;20027;-79
2023/10/03 15:35:24;;;;;;;0.00;0.00;;;;;;;;;;4970222;28;20454;-80
2023/10/03 15:37:50;;;;;;;0.00;0.00;;;;;;;;;;4954059;29;20035;-81
2023/10/03 15:40:17;;;;;;;0.00;0.00;;;;;;;;;;4955212;28;20453;-81
2023/10/03 15:42:43;;;;;;;0.00;0.00;;;;;;;;;;4953933;29;20027;-80
2023/10/03 15:45:11;;;;;;;0.00;0.00;;;;;;;;;;4938268;29;20031;-78
2023/10/03 15:47:37;;;;;;;0.00;0.00;;;;;;;;;;4969671;28;20032;-79
2023/10/03 15:50:03;;;;;;;0.00;0.00;;;;;;;;;;4954157;29;20027;-79
2023/10/03 15:52:30;;;;;;;0.00;0.00;;;;;;;;;;4938075;29;20059;-81
2023/10/03 15:54:59;;;;;;;0.00;0.00;;;;;;;;;;4938230;29;20476;-81
2023/10/03 15:57:25;;;;;;;0.00;0.00;;;;;;;;;;4969372;28;20027;-80
2023/10/03 15:59:50;;;;;;;0.00;0.00;;;;;;;;;;4954197;29;20105;-80
2023/10/03 16:02:16;;;;;;;0.00;0.00;;;;;;;;;;4954207;29;20038;-80
2023/10/03 16:04:42;;;;;;;0.00;0.00;;;;;;;;;;4954559;29;20133;-80
2023/10/03 16:07:08;;;;;;;0.00;0.00;;;;;;;;;;4955393;28;20027;-81
2023/10/03 16:09:33;;;;;;;0.00;0.00;;;;;;;;;;4957571;28;20039;-81
2023/10/03 16:11:59;;;;;;;0.00;0.00;;;;;;;;;;4973329;28;20082;-80
2023/10/03 16:14:26;;;;;;;0.00;0.00;;;;;;;;;;4973162;28;20093;-82
2023/10/03 16:16:53;;;;;;;0.00;0.00;;;;;;;;;;4973411;28;20031;-81
2023/10/03 16:19:20;;;;;;;0.00;0.00;;;;;;;;;;4957595;28;20389;-81
2023/10/03 16:21:46;;;;;;;0.00;0.00;;;;;;;;;;4957624;28;20041;-81
2023/10/03 16:24:12;;;;;;;0.00;0.00;;;;;;;;;;4958007;28;20035;-81
2023/10/03 16:26:40;;;;;;;0.00;0.00;;;;;;;;;;4976408;28;20073;-81
2023/10/03 16:29:06;;;;;;;0.00;0.00;;;;;;;;;;4962983;28;20058;-80
2023/10/03 16:31:32;;;;;;;0.00;0.00;;;;;;;;;;4954583;28;20094;-81
2023/10/03 16:33:57;;;;;;;0.00;0.00;;;;;;;;;;4976163;28;20035;-82
2023/10/03 16:36:24;;;;;;;0.00;0.00;;;;;;;;;;4960169;28;20461;-82
2023/10/03 16:38:51;;;;;;;0.00;0.00;;;;;;;;;;4959766;28;20100;-81
2023/10/03 16:41:17;;;;;;;0.00;0.00;;;;;;;;;;4960163;28;20508;-81
2023/10/03 16:43:42;;;;;;;0.00;0.00;;;;;;;;;;4960146;28;20117;-81
2023/10/03 16:46:09;;;;;;;0.00;0.00;;;;;;;;;;4977563;28;20118;-80
2023/10/03 16:48:34;;;;;;;0.00;0.00;;;;;;;;;;4943940;28;20062;-79
2023/10/03 16:50:59;;;;;;;0.00;0.00;;;;;;;;;;4959900;28;20069;-80
2023/10/03 16:53:25;;;;;;;0.00;0.00;;;;;;;;;;4977212;28;20038;-80
2023/10/03 16:55:52;;;;;;;0.00;0.00;;;;;;;;;;4975544;28;20439;-81
2023/10/03 16:58:17;;;;;;;0.00;0.00;;;;;;;;;;4975737;28;20035;-80
2023/10/03 17:00:43;;;;;;;0.00;0.00;;;;;;;;;;4959667;28;20041;-80
2023/10/03 17:03:09;;;;;;;0.00;0.00;;;;;;;;;;4960021;28;20433;-80
2023/10/03 17:05:37;;;;;;;0.00;0.00;;;;;;;;;;4976976;28;20034;-79
2023/10/03 17:08:03;;;;;;;0.00;0.00;;;;;;;;;;4959904;28;20109;-79
2023/10/03 17:10:28;;;;;;;0.00;0.00;;;;;;;;;;4959471;28;20031;-79
2023/10/03 17:12:55;;;;;;;0.00;0.00;;;;;;;;;;4975610;28;20476;-80
2023/10/03 17:15:20;;;;;;;0.00;0.00;;;;;;;;;;4975692;28;20030;-79
2023/10/03 17:17:49;;;;;;;0.00;0.00;;;;;;;;;;4959680;28;20026;-79
2023/10/03 17:20:15;;;;;;;0.00;0.00;;;;;;;;;;4959908;28;20134;-80
2023/10/03 17:22:40;;;;;;;0.00;0.00;;;;;;;;;;4976700;28;20042;-81
2023/10/03 17:25:06;;;;;;;0.00;0.00;;;;;;;;;;4959318;28;20031;-80
2023/10/03 17:27:32;;;;;;;0.00;0.00;;;;;;;;;;4959552;28;20453;-81
2023/10/03 17:29:58;;;;;;;0.00;0.00;;;;;;;;;;4974289;28;20065;-81
2023/10/03 17:32:27;;;;;;;0.00;0.00;;;;;;;;;;4969354;28;20192;-81
2023/10/03 17:34:53;;;;;;;0.00;0.00;;;;;;;;;;4959163;28;20042;-81
2023/10/03 17:37:18;;;;;;;0.00;0.00;;;;;;;;;;4974551;28;20030;-81
2023/10/03 17:39:44;;;;;;;0.00;0.00;;;;;;;;;;4958586;28;20031;-80
2023/10/03 17:42:09;;;;;;;0.00;0.00;;;;;;;;;;4958841;28;20049;-81
2023/10/03 17:44:35;;;;;;;0.00;0.00;;;;;;;;;;4975898;28;20030;-78
2023/10/03 17:47:01;;;;;;;0.00;0.00;;;;;;;;;;4974897;28;20026;-78
2023/10/03 17:49:28;;;;;;;0.00;0.00;;;;;;;;;;4958905;28;20026;-78
2023/10/03 17:51:53;;;;;;;0.00;0.00;;;;;;;;;;4958797;28;20031;-79
2023/10/03 17:54:20;;;;;;;0.00;0.00;;;;;;;;;;4958168;28;20457;-80
2023/10/03 17:56:45;;;;;;;0.00;0.00;;;;;;;;;;4958643;28;20081;-79
2023/10/03 17:59:11;;;;;;;0.00;0.00;;;;;;;;;;4958620;28;20336;-80
2023/10/03 18:01:37;;;;;;;0.00;0.00;;;;;;;;;;4974633;28;20410;-80
2023/10/03 18:04:05;;;;;;;0.00;0.00;;;;;;;;;;4958604;28;20051;-80
2023/10/03 18:06:31;;;;;;;0.00;0.00;;;;;;;;;;4958778;28;20035;-79
2023/10/03 18:08:57;;;;;;;0.08;0.00;;;;;;;;;;4958579;28;20050;-80
2023/10/03 18:11:23;;;;;;;0.00;0.00;;;;;;;;;;4958676;28;20448;-80
2023/10/03 18:13:49;;;;;;;0.00;0.00;;;;;;;;;;4958679;28;20034;-79
2023/10/03 18:16:14;;;;;;;0.00;0.00;;;;;;;;;;4974689;28;20033;-79
2023/10/03 18:18:40;;;;;;;0.00;0.00;;;;;;;;;;4958912;28;20053;-81
2023/10/03 18:21:09;;;;;;;0.00;0.00;;;;;;;;;;4958425;28;20460;-80
2023/10/03 18:23:36;;;;;;;0.00;0.00;;;;;;;;;;4975526;28;20093;-81
2023/10/03 18:26:07;;;;;;;0.00;0.00;;;;;;;;;;4958332;28;20050;-80
2023/10/03 18:28:33;;;;;;;0.00;0.00;;;;;;;;;;4958576;28;20039;-81
2023/10/03 18:30:58;;;;;;;0.00;0.00;;;;;;;;;;4975481;28;20058;-80
2023/10/03 18:33:23;;;;;;;0.00;0.00;;;;;;;;;;4975428;28;20038;-80